createdAt,value
2023-09-08T00:02:28.002Z,15.00
2023-09-08T00:05:26.024Z,15.00
2023-09-08T00:08:25.521Z,15.00
2023-09-08T00:11:23.478Z,14.90
2023-09-08T00:14:21.421Z,15.20
2023-09-08T00:17:19.420Z,15.20
2023-09-08T00:20:17.260Z,15.30
2023-09-08T00:23:15.160Z,15.30
2023-09-08T00:26:13.023Z,15.20
2023-09-08T00:29:11.024Z,15.20
2023-09-08T00:32:08.901Z,15.00
2023-09-08T00:35:09.738Z,15.00
2023-09-08T00:38:07.615Z,15.00
2023-09-08T00:41:07.462Z,15.20
2023-09-08T00:44:06.164Z,15.20
2023-09-08T00:47:04.257Z,15.20
2023-09-08T00:50:04.036Z,15.20
2023-09-08T00:53:02.091Z,15.20
2023-09-08T00:56:01.254Z,15.20
2023-09-08T00:58:59.587Z,15.30
2023-09-08T01:01:57.381Z,15.30
2023-09-08T01:04:55.448Z,15.50
2023-09-08T01:07:54.766Z,15.70
2023-09-08T01:10:53.088Z,15.70
2023-09-08T01:13:50.910Z,15.70
2023-09-08T01:16:48.931Z,15.50
2023-09-08T01:19:49.175Z,15.70
2023-09-08T01:23:22.350Z,15.60
2023-09-08T01:26:23.227Z,15.40
2023-09-08T01:29:24.950Z,15.40
2023-09-08T01:32:23.092Z,15.50
2023-09-08T01:35:21.474Z,15.50
2023-09-08T01:38:19.298Z,15.70
2023-09-08T01:41:17.272Z,15.90
2023-09-08T01:44:15.097Z,16.00
2023-09-08T01:47:13.073Z,16.10
2023-09-08T01:50:11.342Z,16.20
2023-09-08T01:53:09.295Z,16.10
2023-09-08T01:56:07.172Z,16.40
2023-09-08T01:59:06.511Z,16.30
2023-09-08T02:02:04.963Z,16.40
2023-09-08T02:05:03.113Z,16.40
2023-09-08T02:08:01.017Z,16.40
2023-09-08T02:10:58.930Z,16.40
2023-09-08T02:13:58.665Z,16.50
2023-09-08T02:16:57.504Z,16.60
2023-09-08T02:19:55.365Z,16.90
2023-09-08T02:22:57.197Z,17.00
2023-09-08T02:25:55.080Z,17.10
2023-09-08T02:28:53.039Z,17.30
2023-09-08T02:31:51.218Z,17.50
2023-09-08T02:34:50.375Z,17.70
2023-09-08T02:37:48.243Z,17.80
2023-09-08T02:40:46.211Z,17.90
2023-09-08T02:43:44.095Z,18.20
2023-09-08T02:46:43.037Z,18.30
2023-09-08T02:49:43.313Z,18.40
2023-09-08T02:52:41.515Z,18.50
2023-09-08T02:55:39.412Z,18.60
2023-09-08T02:58:38.171Z,18.30
2023-09-08T03:01:36.232Z,18.50
2023-09-08T03:04:34.225Z,18.80
2023-09-08T03:07:32.140Z,18.90
2023-09-08T03:10:30.321Z,19.10
2023-09-08T03:13:28.129Z,19.40
2023-09-08T03:16:26.104Z,19.30
2023-09-08T03:19:23.903Z,19.60
2023-09-08T03:22:21.764Z,19.70
2023-09-08T03:25:19.670Z,19.60
2023-09-08T03:28:17.682Z,19.50
2023-09-08T03:31:15.711Z,19.40
2023-09-08T03:34:14.798Z,19.40
2023-09-08T03:37:12.772Z,19.50
2023-09-08T03:40:11.384Z,19.30
2023-09-08T03:43:09.232Z,19.20
2023-09-08T03:46:07.218Z,19.40
2023-09-08T03:49:05.523Z,19.60
2023-09-08T03:52:03.585Z,19.80
2023-09-08T03:55:01.469Z,19.50
2023-09-08T03:57:59.479Z,19.80
2023-09-08T04:00:57.372Z,19.90
2023-09-08T04:03:55.782Z,20.30
2023-09-08T04:06:53.664Z,20.50
2023-09-08T04:09:51.583Z,20.50
2023-09-08T04:12:49.510Z,20.20
2023-09-08T04:15:47.518Z,19.90
2023-09-08T04:18:46.415Z,19.90
2023-09-08T04:21:44.382Z,20.10
2023-09-08T04:24:42.221Z,20.20
2023-09-08T04:27:40.332Z,20.40
2023-09-08T04:30:38.120Z,20.60
2023-09-08T04:33:36.503Z,20.70
2023-09-08T04:36:34.616Z,20.90
2023-09-08T04:39:32.625Z,20.90
2023-09-08T04:42:31.165Z,21.10
2023-09-08T04:45:29.231Z,21.30
2023-09-08T04:48:29.244Z,21.10
2023-09-08T04:51:28.673Z,20.80
2023-09-08T04:54:28.832Z,20.40
2023-09-08T04:57:26.799Z,20.70
2023-09-08T05:00:24.934Z,21.00
2023-09-08T05:03:23.035Z,21.20
2023-09-08T05:06:20.814Z,21.50
2023-09-08T05:09:18.834Z,21.60
2023-09-08T05:12:16.775Z,21.70
2023-09-08T05:15:17.236Z,21.70
2023-09-08T05:18:15.191Z,21.70
2023-09-08T05:21:13.204Z,21.70
2023-09-08T05:24:11.323Z,21.80
2023-09-08T05:27:09.319Z,21.90
2023-09-08T05:30:08.303Z,21.80
2023-09-08T05:33:06.407Z,22.00
2023-09-08T05:36:04.350Z,22.00
2023-09-08T05:39:02.340Z,22.10
2023-09-08T05:42:00.261Z,22.20
2023-09-08T05:44:58.205Z,22.30
2023-09-08T05:47:56.208Z,22.50
2023-09-08T05:50:54.331Z,22.40
2023-09-08T05:53:52.248Z,22.40
2023-09-08T05:56:50.185Z,21.90
2023-09-08T05:59:48.009Z,22.10
2023-09-08T06:02:46.041Z,22.00
2023-09-08T06:05:44.109Z,21.90
2023-09-08T06:08:42.060Z,21.80
2023-09-08T06:11:39.990Z,21.60
2023-09-08T06:14:38.135Z,21.50
2023-09-08T06:17:36.041Z,21.20
2023-09-08T06:20:34.155Z,20.90
2023-09-08T06:23:32.036Z,20.60
2023-09-08T06:26:30.043Z,20.50
2023-09-08T06:29:27.836Z,20.60
2023-09-08T06:32:25.827Z,20.20
2023-09-08T06:35:23.749Z,19.80
2023-09-08T06:38:21.848Z,19.50
2023-09-08T06:41:19.666Z,19.60
2023-09-08T06:44:17.739Z,20.00
2023-09-08T06:47:15.564Z,20.20
2023-09-08T06:50:13.886Z,20.10
2023-09-08T06:53:12.324Z,20.20
2023-09-08T06:56:10.374Z,20.60
2023-09-08T06:59:08.217Z,20.90
2023-09-08T07:02:06.333Z,21.10
2023-09-08T07:05:09.446Z,21.30
2023-09-08T07:08:08.964Z,21.50
2023-09-08T07:11:06.874Z,21.20
2023-09-08T07:14:04.880Z,21.50
2023-09-08T07:17:02.874Z,21.80
2023-09-08T07:20:00.935Z,22.10
2023-09-08T07:22:58.764Z,22.40
2023-09-08T07:25:56.984Z,22.50
2023-09-08T07:28:54.795Z,22.70
2023-09-08T07:31:53.010Z,22.80
2023-09-08T07:34:57.017Z,23.00
2023-09-08T07:37:55.409Z,23.10
2023-09-08T07:40:53.228Z,23.20
2023-09-08T07:43:52.675Z,23.40
2023-09-08T07:46:52.859Z,23.60
2023-09-08T07:49:50.763Z,23.70
2023-09-08T07:52:50.057Z,23.80
2023-09-08T07:55:48.014Z,23.90
2023-09-08T07:58:45.902Z,23.90
2023-09-08T08:01:44.031Z,23.90
2023-09-08T08:04:41.906Z,23.50
2023-09-08T08:07:41.918Z,23.30
2023-09-08T08:10:39.773Z,23.40
2023-09-08T08:13:37.696Z,23.60
2023-09-08T08:16:36.372Z,23.90
2023-09-08T08:19:34.395Z,23.90
2023-09-08T08:22:32.374Z,23.70
2023-09-08T08:25:30.692Z,23.80
2023-09-08T08:28:28.586Z,23.80
2023-09-08T08:31:26.491Z,23.60
2023-09-08T08:34:24.291Z,23.40
2023-09-08T08:37:22.395Z,23.50
2023-09-08T08:40:20.301Z,23.30
2023-09-08T08:43:18.391Z,23.20
2023-09-08T08:46:16.618Z,22.60
2023-09-08T08:49:16.805Z,22.50
2023-09-08T08:52:16.493Z,22.40
2023-09-08T08:55:17.285Z,22.10
2023-09-08T08:58:16.309Z,22.20
2023-09-08T09:01:14.549Z,22.20
2023-09-08T09:04:13.776Z,21.80
2023-09-08T09:07:12.841Z,22.00
2023-09-08T09:10:11.392Z,22.20
2023-09-08T09:13:09.308Z,22.10
2023-09-08T09:16:11.898Z,22.30
2023-09-08T09:19:10.113Z,22.00
2023-09-08T09:22:07.875Z,22.10
2023-09-08T09:25:09.258Z,22.00
2023-09-08T09:28:07.641Z,21.80
2023-09-08T09:31:05.786Z,21.60
2023-09-08T09:34:06.131Z,21.70
2023-09-08T09:37:07.052Z,21.70
2023-09-08T09:40:09.087Z,21.50
2023-09-08T09:43:08.859Z,21.60
2023-09-08T09:46:10.758Z,21.60
2023-09-08T09:49:11.812Z,21.70
2023-09-08T09:52:09.660Z,22.00
2023-09-08T09:55:08.932Z,21.90
2023-09-08T09:58:07.483Z,22.00
2023-09-08T10:01:07.600Z,21.80
2023-09-08T10:04:06.643Z,21.70
2023-09-08T10:07:04.866Z,21.90
2023-09-08T10:10:02.633Z,22.00
2023-09-08T10:13:06.344Z,21.90
2023-09-08T10:16:06.129Z,22.00
2023-09-08T10:19:07.947Z,21.90
2023-09-08T10:22:07.925Z,21.90
2023-09-08T10:25:08.185Z,22.00
2023-09-08T10:28:06.886Z,22.20
2023-09-08T10:31:06.005Z,22.30
2023-09-08T10:34:04.675Z,22.00
2023-09-08T10:37:02.766Z,22.20
2023-09-08T10:40:24.189Z,22.20
2023-09-08T10:43:22.880Z,22.20
2023-09-08T10:46:25.327Z,22.20
2023-09-08T10:49:23.128Z,22.40
2023-09-08T10:52:23.978Z,22.60
2023-09-08T10:55:39.365Z,22.50
2023-09-08T10:58:42.562Z,22.70
2023-09-08T11:01:40.618Z,22.60
2023-09-08T11:04:39.045Z,22.70
2023-09-08T11:07:39.487Z,22.70
2023-09-08T11:10:39.257Z,22.70
2023-09-08T11:13:37.294Z,22.70
2023-09-08T11:16:38.094Z,22.70
2023-09-08T11:19:51.739Z,22.80
2023-09-08T11:22:51.297Z,22.70
2023-09-08T11:25:50.759Z,22.70
2023-09-08T11:28:50.852Z,22.50
2023-09-08T11:31:54.449Z,22.40
2023-09-08T11:34:52.383Z,22.20
2023-09-08T11:37:51.305Z,22.10
2023-09-08T11:40:49.219Z,22.20
2023-09-08T11:43:47.369Z,22.30
2023-09-08T11:46:45.342Z,22.30
2023-09-08T11:49:46.150Z,22.40
2023-09-08T11:52:48.818Z,22.50
2023-09-08T11:55:47.394Z,22.50
2023-09-08T11:58:46.228Z,22.50
2023-09-08T12:01:44.314Z,22.50
2023-09-08T12:04:43.698Z,22.40
2023-09-08T12:07:41.712Z,22.40
2023-09-08T12:10:40.926Z,22.30
2023-09-08T12:13:38.985Z,22.20
2023-09-08T12:16:37.107Z,22.20
2023-09-08T12:19:35.268Z,22.10
2023-09-08T12:22:34.993Z,22.10
2023-09-08T12:25:33.548Z,21.90
2023-09-08T12:28:33.487Z,21.80
2023-09-08T12:31:31.820Z,21.60
2023-09-08T12:34:32.335Z,21.50
2023-09-08T12:37:30.721Z,21.50
2023-09-08T12:40:30.124Z,21.60
2023-09-08T12:43:28.581Z,21.70
2023-09-08T12:46:27.562Z,21.70
2023-09-08T12:49:25.518Z,21.80
2023-09-08T12:52:23.479Z,21.80
2023-09-08T12:55:22.187Z,21.80
2023-09-08T12:58:23.176Z,21.70
2023-09-08T13:01:24.219Z,21.60
2023-09-08T13:04:23.668Z,21.60
2023-09-08T13:07:21.909Z,21.60
2023-09-08T13:10:19.835Z,21.40
2023-09-08T13:13:17.808Z,21.40
2023-09-08T13:16:15.760Z,21.20
2023-09-08T13:19:14.815Z,21.10
2023-09-08T13:22:13.065Z,21.00
2023-09-08T13:25:11.101Z,20.80
2023-09-08T13:28:09.268Z,20.80
2023-09-08T13:31:07.339Z,20.60
2023-09-08T13:34:05.300Z,20.50
2023-09-08T13:37:04.366Z,20.40
2023-09-08T13:40:05.898Z,20.20
2023-09-08T13:43:04.253Z,20.20
2023-09-08T13:46:02.221Z,20.10
2023-09-08T13:49:01.515Z,20.00
2023-09-08T13:52:01.708Z,20.00
2023-09-08T13:55:24.507Z,19.90
2023-09-08T13:58:20.011Z,19.80
2023-09-08T14:01:20.041Z,19.80
2023-09-08T14:04:19.144Z,19.80
2023-09-08T14:10:28.443Z,19.90
2023-09-08T14:13:28.472Z,20.00
2023-09-08T14:16:29.102Z,20.10
2023-09-08T14:19:27.094Z,20.10
2023-09-08T14:22:25.136Z,20.20
2023-09-08T14:25:24.553Z,20.00
2023-09-08T14:28:22.657Z,20.00
2023-09-08T14:31:20.656Z,20.10
2023-09-08T14:34:18.632Z,20.20
2023-09-08T14:37:17.070Z,20.30
2023-09-08T14:40:14.920Z,20.30
2023-09-08T14:43:12.855Z,20.20
2023-09-08T14:46:10.730Z,20.30
2023-09-08T14:49:08.676Z,20.30
2023-09-08T14:52:07.124Z,20.20
2023-09-08T14:55:05.215Z,20.20
2023-09-08T14:58:03.264Z,20.20
2023-09-08T15:01:08.985Z,20.10
2023-09-08T15:04:07.375Z,20.00
2023-09-08T15:07:06.505Z,19.90
2023-09-08T15:10:05.984Z,20.00
2023-09-08T15:13:05.076Z,19.90
2023-09-08T15:16:03.385Z,19.70
2023-09-08T15:19:04.542Z,19.70
2023-09-08T15:22:02.332Z,19.70
2023-09-08T15:25:00.311Z,19.70
2023-09-08T15:28:01.025Z,19.80
2023-09-08T15:30:58.961Z,19.70
2023-09-08T15:33:56.997Z,19.60
2023-09-08T15:36:55.021Z,19.50
2023-09-08T15:39:53.283Z,19.40
2023-09-08T15:42:53.846Z,19.30
2023-09-08T15:45:51.643Z,19.40
2023-09-08T15:48:50.067Z,19.50
2023-09-08T15:51:51.594Z,19.60
2023-09-08T15:54:52.331Z,19.60
2023-09-08T15:57:50.238Z,19.50
2023-09-08T16:00:48.387Z,19.70
2023-09-08T16:03:47.164Z,19.60
2023-09-08T16:06:45.217Z,19.70
2023-09-08T16:09:43.628Z,19.80
2023-09-08T16:12:41.592Z,19.80
2023-09-08T16:15:40.369Z,19.70
2023-09-08T16:18:38.464Z,19.70
2023-09-08T16:21:37.635Z,19.70
2023-09-08T16:24:35.685Z,19.60
2023-09-08T16:27:35.604Z,19.70
2023-09-08T16:30:33.654Z,19.80
2023-09-08T16:33:31.529Z,19.70
2023-09-08T16:36:30.642Z,19.70
2023-09-08T16:39:28.559Z,19.50
2023-09-08T16:42:26.711Z,19.50
2023-09-08T16:45:24.597Z,19.50
2023-09-08T16:48:22.771Z,19.50
2023-09-08T16:51:20.603Z,19.50
2023-09-08T16:54:18.511Z,19.40
2023-09-08T16:57:16.885Z,19.50
2023-09-08T17:00:15.135Z,19.60
2023-09-08T17:03:13.231Z,19.60
2023-09-08T17:06:11.408Z,19.50
2023-09-08T17:09:10.313Z,19.40
2023-09-08T17:12:10.371Z,19.40
2023-09-08T17:15:09.455Z,19.30
2023-09-08T17:18:07.918Z,19.30
2023-09-08T17:21:08.987Z,19.20
2023-09-08T17:24:07.495Z,19.20
2023-09-08T17:27:05.762Z,19.10
2023-09-08T17:30:03.725Z,19.00
2023-09-08T17:33:01.649Z,19.00
2023-09-08T17:35:59.641Z,18.90
2023-09-08T17:38:57.572Z,18.70
2023-09-08T17:41:55.546Z,18.70
2023-09-08T17:44:53.277Z,18.60
2023-09-08T17:47:51.250Z,18.60
2023-09-08T17:50:49.304Z,18.60
2023-09-08T17:53:47.596Z,18.60
2023-09-08T17:56:45.368Z,18.50
2023-09-08T17:59:43.651Z,18.40
2023-09-08T18:02:41.617Z,18.30
2023-09-08T18:05:39.873Z,18.30
2023-09-08T18:08:37.815Z,18.30
2023-09-08T18:11:35.813Z,18.20
2023-09-08T18:14:33.703Z,18.20
2023-09-08T18:17:33.095Z,18.30
2023-09-08T18:20:30.971Z,18.40
2023-09-08T18:23:28.951Z,18.60
2023-09-08T18:26:26.844Z,18.80
2023-09-08T18:29:24.853Z,18.90
2023-09-08T18:32:22.664Z,19.00
2023-09-08T18:35:22.197Z,18.90
2023-09-08T18:38:20.055Z,19.00
2023-09-08T18:41:19.094Z,19.00
2023-09-08T18:44:16.912Z,19.00
2023-09-08T18:47:14.931Z,18.90
2023-09-08T18:50:13.899Z,18.90
2023-09-08T18:53:12.225Z,18.80
2023-09-08T18:56:10.204Z,18.70
2023-09-08T18:59:08.128Z,18.60
2023-09-08T19:02:06.224Z,18.70
2023-09-08T19:05:04.634Z,18.70
2023-09-08T19:08:02.674Z,18.80
2023-09-08T19:11:01.185Z,18.80
2023-09-08T19:13:58.937Z,18.80
2023-09-08T19:16:59.265Z,18.80
2023-09-08T19:19:57.129Z,18.70
2023-09-08T19:22:55.473Z,18.70
2023-09-08T19:25:53.341Z,18.70
2023-09-08T19:28:51.675Z,18.60
2023-09-08T19:31:49.437Z,18.60
2023-09-08T19:34:47.376Z,18.60
2023-09-08T19:37:45.193Z,18.50
2023-09-08T19:40:43.151Z,18.40
2023-09-08T19:43:41.423Z,18.50
2023-09-08T19:46:39.389Z,18.60
2023-09-08T19:49:40.228Z,18.50
2023-09-08T19:52:41.111Z,18.40
2023-09-08T19:55:41.437Z,18.40
2023-09-08T19:58:39.449Z,18.40
2023-09-08T20:01:37.466Z,18.40
2023-09-08T20:04:35.511Z,18.40
2023-09-08T20:07:33.373Z,18.40
2023-09-08T20:10:31.339Z,18.40
2023-09-08T20:13:29.273Z,18.40
2023-09-08T20:16:27.305Z,18.40
2023-09-08T20:19:25.141Z,18.40
2023-09-08T20:22:23.266Z,18.30
2023-09-08T20:25:22.091Z,18.20
2023-09-08T20:28:21.471Z,18.30
2023-09-08T20:31:19.740Z,18.30
2023-09-08T20:34:18.201Z,18.20
2023-09-08T20:37:16.313Z,18.30
2023-09-08T20:40:14.456Z,18.20
2023-09-08T20:43:12.222Z,18.30
2023-09-08T20:46:10.386Z,18.30
2023-09-08T20:49:09.988Z,18.40
2023-09-08T20:52:13.581Z,18.40
2023-09-08T20:55:12.161Z,18.40
2023-09-08T20:58:10.076Z,18.40
2023-09-08T21:01:08.658Z,18.40
2023-09-08T21:04:07.336Z,18.50
2023-09-08T21:07:05.351Z,18.60
2023-09-08T21:10:03.882Z,18.60
2023-09-08T21:13:01.647Z,18.60
2023-09-08T21:16:00.173Z,18.50
2023-09-08T21:18:58.023Z,18.40
2023-09-08T21:21:56.118Z,18.40
2023-09-08T21:24:56.942Z,18.30
2023-09-08T21:27:54.867Z,18.30
2023-09-08T21:30:52.720Z,18.40
2023-09-08T21:33:51.555Z,18.40
2023-09-08T21:36:49.736Z,18.40
2023-09-08T21:39:47.721Z,18.40
2023-09-08T21:42:45.561Z,18.20
2023-09-08T21:45:43.489Z,18.10
2023-09-08T21:48:41.452Z,17.80
2023-09-08T21:51:40.115Z,17.60
2023-09-08T21:54:38.147Z,17.50
2023-09-08T21:57:36.151Z,17.40
2023-09-08T22:00:34.670Z,17.20
2023-09-08T22:03:32.839Z,17.10
2023-09-08T22:06:30.812Z,17.10
2023-09-08T22:09:28.821Z,17.00
2023-09-08T22:12:26.602Z,17.00
2023-09-08T22:15:24.631Z,17.10
2023-09-08T22:18:22.443Z,17.10
2023-09-08T22:21:20.329Z,17.00
2023-09-08T22:24:18.291Z,17.00
2023-09-08T22:27:16.298Z,17.00
2023-09-08T22:30:14.544Z,17.00
2023-09-08T22:33:12.537Z,16.90
2023-09-08T22:36:10.707Z,16.90
2023-09-08T22:39:10.296Z,17.00
2023-09-08T22:42:08.277Z,17.00
2023-09-08T22:45:06.925Z,17.10
2023-09-08T22:48:05.285Z,17.10
2023-09-08T22:51:04.919Z,17.00
2023-09-08T22:54:04.223Z,17.10
2023-09-08T22:57:02.228Z,17.00
2023-09-08T23:00:00.674Z,17.00
2023-09-08T23:02:58.817Z,17.00
2023-09-08T23:05:57.333Z,17.00
2023-09-08T23:08:55.371Z,16.90
2023-09-08T23:11:54.046Z,16.90
2023-09-08T23:14:54.841Z,16.80
2023-09-08T23:17:53.110Z,16.70
2023-09-08T23:20:51.247Z,16.70
2023-09-08T23:23:49.068Z,16.70
2023-09-08T23:26:47.239Z,16.70
2023-09-08T23:29:45.067Z,16.60
2023-09-08T23:32:45.387Z,16.60
2023-09-08T23:35:43.920Z,16.70
2023-09-08T23:38:41.945Z,16.60
2023-09-08T23:41:39.776Z,16.70
2023-09-08T23:44:37.790Z,16.70
2023-09-08T23:47:35.924Z,16.60
2023-09-08T23:50:55.180Z,16.60
2023-09-08T23:53:53.988Z,16.60
2023-09-08T23:56:52.001Z,16.70
2023-09-08T23:59:50.416Z,16.70
